Terminal Aerodrome Forecast
Issued by NWS Pittsburgh, PA

Current Version | Previous Version | Graphics & Text | Print | Product List | Glossary On
Versions: 1 2 3 4 5 6 7 8 9 10 11 12 13 14 15 16 17 18 19 20 21 22 23 24 25 26
000
FTUS41 KPBZ 211457 AAB
TAFPIT
TAF AMD
KPIT 211457Z 2115/2218 26008KT P6SM BKN035
     FM220000 27008KT P6SM SCT040
     FM220900 31005KT 6SM BR BKN010
     FM221400 32004KT P6SM SCT050=

USA.gov is the U.S. government's official web portal to all federal, state and local government web resources and services.